Time;durP1;ratioP1;P1;durP2;ratioP2;P2;SDS_P1;SDS_P2;PMS_P1;PMS_P2;Temp;Humidity;BMP_temperature;BMP_pressure;BME280_temperature;BME280_humidity;BME280_pressure;Samples;Min_cycle;Max_cycle;Signal;HPM_P1;HPM_P2
2023/01/06 00:01:12;;;;;;;1.50;0.95;;;;;;;7.39;100.00;99077.25;4423724;32;20156;-75
2023/01/06 00:03:39;;;;;;;5.70;1.40;;;;;;;7.38;100.00;99079.97;4424009;32;20154;-75
2023/01/06 00:06:09;;;;;;;5.97;1.15;;;;;;;7.37;100.00;99091.31;4423999;32;20202;-75
2023/01/06 00:08:37;;;;;;;2.40;1.40;;;;;;;7.41;100.00;99092.78;4423930;32;20098;-75
2023/01/06 00:11:09;;;;;;;7.32;1.30;;;;;;;7.46;100.00;99104.56;4439175;32;20565;-75
2023/01/06 00:13:36;;;;;;;3.60;1.23;;;;;;;7.45;100.00;99102.88;4438990;32;20144;-75
2023/01/06 00:16:15;;;;;;;9.52;2.85;;;;;;;7.38;100.00;99104.25;4439107;32;20120;-75
2023/01/06 00:18:43;;;;;;;4.28;1.10;;;;;;;7.42;100.00;99107.50;4438921;32;20799;-75
2023/01/06 00:21:11;;;;;;;3.05;1.30;;;;;;;7.44;100.00;99108.19;4435760;32;20144;-75
2023/01/06 00:23:39;;;;;;;4.87;1.30;;;;;;;7.44;100.00;99108.19;4423788;32;20111;-75
2023/01/06 00:26:07;;;;;;;2.53;1.20;;;;;;;7.53;100.00;99117.16;4423470;32;20137;-75
2023/01/06 00:28:35;;;;;;;4.18;1.73;;;;;;;7.43;100.00;99107.38;4423305;32;20132;-75
2023/01/06 00:31:11;;;;;;;9.27;1.27;;;;;;;7.42;100.00;99099.66;4423743;32;20086;-75
2023/01/06 00:33:39;;;;;;;5.80;1.45;;;;;;;7.45;100.00;99102.06;4423607;32;20088;-75
2023/01/06 00:36:08;;;;;;;5.05;1.30;;;;;;;7.39;100.00;99103.31;4423542;32;20447;-75
2023/01/06 00:38:35;;;;;;;3.05;1.02;;;;;;;7.39;100.00;99107.69;4423455;32;20090;-75
2023/01/06 00:42:11;;;;;;;2.85;1.00;;;;;;;7.42;100.00;99115.31;4423610;32;20136;-75
2023/01/06 00:44:07;;;;;;;3.67;1.20;;;;;;;7.39;100.00;99118.13;4410161;32;20473;-75
2023/01/06 00:46:35;;;;;;;2.33;1.17;;;;;;;7.37;100.00;99125.22;4423487;32;20119;-75
2023/01/06 00:49:03;;;;;;;1.30;0.80;;;;;;;7.32;100.00;99125.53;4423454;32;20161;-75
2023/01/06 00:51:34;;;;;;;2.45;1.15;;;;;;;7.37;100.00;99135.62;4423644;32;20116;-75
2023/01/06 00:54:02;;;;;;;4.10;1.42;;;;;;;7.33;100.00;99132.41;4423533;32;20093;-75
2023/01/06 00:56:30;;;;;;;3.12;1.23;;;;;;;7.37;100.00;99139.06;4423670;32;20431;-75
2023/01/06 00:58:57;;;;;;;6.53;1.12;;;;;;;7.37;100.00;99143.44;4422246;32;20094;-75
2023/01/06 01:01:24;;;;;;;1.75;0.90;;;;;;;7.37;100.00;99143.44;4423589;32;20162;-75
2023/01/06 01:03:53;;;;;;;2.05;0.85;;;;;;;7.34;100.00;99143.66;4423505;32;20459;-75
2023/01/06 01:06:20;;;;;;;3.95;0.90;;;;;;;7.33;100.00;99144.59;4423409;32;20094;-75
2023/01/06 01:08:55;;;;;;;2.28;1.52;;;;;;;7.29;100.00;99146.59;4424538;32;20097;-75
2023/01/06 01:14:10;;;;;;;3.22;1.33;;;;;;;7.34;100.00;99159.31;4438805;32;20031;-75
2023/01/06 01:16:39;;;;;;;3.78;1.27;;;;;;;7.32;100.00;99167.22;4438673;32;20119;-75
2023/01/06 01:19:06;;;;;;;2.25;1.10;;;;;;;7.32;100.00;99166.41;4438526;32;20093;-75
2023/01/06 01:21:34;;;;;;;3.62;1.17;;;;;;;7.35;100.00;99166.19;4432840;32;20536;-75
2023/01/06 01:24:01;;;;;;;2.95;1.33;;;;;;;7.33;100.00;99168.06;4423148;32;20482;-75
2023/01/06 01:26:28;;;;;;;5.90;1.08;;;;;;;7.36;100.00;99175.66;4423317;32;20119;-75
2023/01/06 01:28:55;;;;;;;4.40;1.80;;;;;;;7.36;100.00;99178.25;4422884;32;20120;-75
2023/01/06 01:31:23;;;;;;;3.92;1.33;;;;;;;7.37;100.00;99185.16;4423151;32;20159;-75
2023/01/06 01:33:50;;;;;;;2.58;1.00;;;;;;;7.40;100.00;99193.59;4423029;32;20157;-75
2023/01/06 01:36:19;;;;;;;3.58;1.23;;;;;;;7.45;100.00;99188.06;4423078;32;20120;-75
2023/01/06 01:38:48;;;;;;;2.67;1.25;;;;;;;7.39;100.00;99193.72;4423404;32;20150;-75
2023/01/06 01:41:18;;;;;;;5.62;1.27;;;;;;;7.40;100.00;99190.16;4423132;32;20399;-75
2023/01/06 01:43:55;;;;;;;3.37;1.52;;;;;;;7.45;100.00;99191.50;4409447;32;20094;-75
2023/01/06 01:46:32;;;;;;;5.55;1.37;;;;;;;7.46;100.00;99193.19;4423133;32;20082;-75
2023/01/06 01:49:08;;;;;;;6.15;1.73;;;;;;;7.40;100.00;99192.75;4423077;32;20098;-75
2023/01/06 01:51:41;;;;;;;5.75;1.40;;;;;;;7.34;100.00;99193.19;4409351;32;20102;-75
2023/01/06 01:54:12;;;;;;;5.03;2.10;;;;;;;7.33;100.00;99191.50;4409432;32;20077;-75
2023/01/06 01:56:43;;;;;;;7.93;1.45;;;;;;;7.28;100.00;99195.28;4409063;32;20143;-75
2023/01/06 01:59:18;;;;;;;4.85;1.52;;;;;;;7.18;100.00;99194.25;4422777;32;20125;-75
2023/01/06 02:01:46;;;;;;;5.53;1.12;;;;;;;7.17;100.00;99195.16;4409106;32;20105;-75
2023/01/06 02:04:15;;;;;;;5.03;1.30;;;;;;;7.15;100.00;99196.25;4409279;32;20119;-75
2023/01/06 02:06:42;;;;;;;2.80;1.27;;;;;;;7.22;100.00;99206.13;4409331;32;20125;-75
2023/01/06 02:09:16;;;;;;;4.68;1.62;;;;;;;7.14;100.00;99194.56;4426069;32;20485;-75
2023/01/06 02:11:46;;;;;;;5.12;1.42;;;;;;;7.09;100.00;99197.47;4424679;32;20124;-74
2023/01/06 02:14:16;;;;;;;2.72;1.20;;;;;;;7.10;100.00;99201.72;4438338;32;20155;-75
2023/01/06 02:17:03;;;;;;;4.53;1.83;;;;;;;7.07;100.00;99202.78;4438460;32;20096;-75
2023/01/06 02:19:52;;;;;;;4.50;1.40;;;;;;;7.05;100.00;99190.81;4438009;32;20117;-75
2023/01/06 02:22:40;;;;;;;5.28;1.50;;;;;;;7.08;100.00;99198.41;4427922;32;20378;-75
2023/01/06 02:25:14;;;;;;;5.35;2.67;;;;;;;7.07;100.00;99205.41;4422607;32;20128;-74
2023/01/06 02:28:09;;;;;;;3.83;1.03;;;;;;;7.05;100.00;99206.44;4422686;32;20089;-75
2023/01/06 02:31:10;;;;;;;1.65;1.20;;;;;;;7.05;100.00;99209.84;4409118;32;20106;-75
2023/01/06 02:33:45;;;;;;;4.35;1.95;;;;;;;7.11;100.00;99213.81;4422714;32;20165;-74
2023/01/06 02:36:33;;;;;;;6.50;1.42;;;;;;;7.07;100.00;99214.97;4422712;32;20148;-75
2023/01/06 02:39:17;;;;;;;7.43;1.48;;;;;;;7.09;100.00;99219.16;4409066;32;20090;-74
2023/01/06 02:42:09;;;;;;;3.58;1.42;;;;;;;7.15;100.00;99212.69;4408843;32;20164;-75
2023/01/06 02:44:55;;;;;;;2.80;1.30;;;;;;;7.18;100.00;99212.47;4422569;32;20483;-74
2023/01/06 02:47:43;;;;;;;6.35;1.52;;;;;;;7.20;100.00;99212.38;4408660;32;20160;-75
2023/01/06 02:50:19;;;;;;;4.20;1.52;;;;;;;7.21;100.00;99214.06;4422525;32;20104;-75
2023/01/06 02:53:16;;;;;;;7.37;1.55;;;;;;;7.15;100.00;99217.91;4408546;32;20093;-75
2023/01/06 02:55:48;;;;;;;2.17;1.42;;;;;;;7.18;100.00;99222.09;4422784;32;20115;-75
2023/01/06 02:58:25;;;;;;;4.78;1.65;;;;;;;7.20;100.00;99221.00;4408815;32;20116;-75
2023/01/06 03:01:01;;;;;;;6.18;1.55;;;;;;;7.24;100.00;99230.31;4422489;32;20081;-75
2023/01/06 03:03:31;;;;;;;7.68;2.83;;;;;;;7.23;100.00;99241.66;4408580;32;20174;-75
2023/01/06 03:06:04;;;;;;;5.68;2.15;;;;;;;7.22;100.00;99242.62;4408590;32;20161;-75
2023/01/06 03:08:33;;;;;;;5.50;1.60;;;;;;;7.17;100.00;99244.69;4408381;32;20094;-75
2023/01/06 03:11:00;;;;;;;3.83;1.60;;;;;;;7.22;100.00;99253.03;4423789;32;20566;-75
2023/01/06 03:13:35;;;;;;;2.53;1.00;;;;;;;7.22;100.00;99250.44;4437516;32;20121;-75
2023/01/06 03:16:03;;;;;;;4.55;1.25;;;;;;;7.19;100.00;99244.56;4437523;32;20097;-75
2023/01/06 03:18:31;;;;;;;2.10;1.12;;;;;;;7.20;100.00;99252.28;4437159;32;20154;-75
2023/01/06 03:21:03;;;;;;;3.65;1.10;;;;;;;7.20;100.00;99249.69;4435288;32;20105;-75
2023/01/06 03:23:32;;;;;;;2.62;1.35;;;;;;;7.20;100.00;99243.66;4423973;32;20106;-75
2023/01/06 03:25:59;;;;;;;6.85;1.42;;;;;;;7.22;100.00;99249.56;4410097;32;20106;-74
2023/01/06 03:28:27;;;;;;;3.33;1.05;;;;;;;7.15;100.00;99249.16;4410068;32;20105;-75
2023/01/06 03:31:06;;;;;;;2.22;1.15;;;;;;;7.16;100.00;99242.19;4424315;32;20094;-74
2023/01/06 03:33:42;;;;;;;4.30;1.33;;;;;;;7.15;100.00;99243.97;4424032;32;20086;-74
2023/01/06 03:36:33;;;;;;;3.25;1.20;;;;;;;7.24;100.00;99238.13;4424395;32;20752;-75
2023/01/06 03:39:12;;;;;;;4.80;1.62;;;;;;;7.17;100.00;99238.63;4424336;32;20097;-75
2023/01/06 03:44:31;;;;;;;2.40;1.52;;;;;;;7.15;100.00;99241.34;4424061;32;20120;-75
2023/01/06 03:47:06;;;;;;;3.87;1.27;;;;;;;7.18;100.00;99237.72;4424204;32;20160;-74
2023/01/06 03:49:43;;;;;;;3.87;1.33;;;;;;;7.20;100.00;99236.66;4410049;32;20682;-74
2023/01/06 03:52:18;;;;;;;3.70;1.25;;;;;;;7.18;100.00;99248.97;4410005;32;20085;-74
2023/01/06 03:54:53;;;;;;;3.40;1.48;;;;;;;7.17;100.00;99244.69;4424127;32;20148;-74
2023/01/06 03:57:24;;;;;;;5.35;1.77;;;;;;;7.17;100.00;99252.50;4423670;32;20094;-74
2023/01/06 03:59:55;;;;;;;2.25;1.23;;;;;;;7.14;100.00;99262.31;4410290;32;20181;-74
2023/01/06 04:02:23;;;;;;;6.80;1.67;;;;;;;7.12;100.00;99254.59;4410218;32;20077;-74
2023/01/06 04:05:03;;;;;;;4.03;1.30;;;;;;;7.13;100.00;99253.66;4424078;32;20154;-74
2023/01/06 04:07:30;;;;;;;4.35;1.60;;;;;;;7.13;100.00;99255.41;4410193;32;20094;-74
2023/01/06 04:09:58;;;;;;;10.23;2.55;;;;;;;7.09;100.00;99254.78;4432548;32;20109;-74
2023/01/06 04:12:40;;;;;;;3.50;1.10;;;;;;;7.08;100.00;99263.53;4439267;32;20085;-75
2023/01/06 04:15:15;;;;;;;2.90;1.60;;;;;;;7.06;100.00;99265.44;4439449;32;20101;-75
2023/01/06 04:17:43;;;;;;;3.30;1.30;;;;;;;7.09;100.00;99270.44;4439346;32;20085;-74
2023/01/06 04:20:14;;;;;;;4.70;1.05;;;;;;;7.15;100.00;99269.19;4439171;32;20200;-75
2023/01/06 04:22:42;;;;;;;3.70;1.60;;;;;;;7.17;100.00;99277.72;4422624;32;20131;-74
2023/01/06 04:25:09;;;;;;;5.60;1.42;;;;;;;7.15;100.00;99287.44;4423605;32;20101;-74
2023/01/06 04:27:37;;;;;;;4.22;1.35;;;;;;;7.14;100.00;99280.53;4423791;32;20101;-74
2023/01/06 04:30:05;;;;;;;5.32;1.67;;;;;;;7.14;100.00;99281.38;4423717;32;20097;-74
2023/01/06 04:32:33;;;;;;;4.70;1.65;;;;;;;7.10;100.00;99288.56;4423635;32;20097;-74
2023/01/06 04:35:01;;;;;;;6.00;2.10;;;;;;;7.07;100.00;99278.34;4423890;32;20212;-74
2023/01/06 04:37:28;;;;;;;6.60;1.80;;;;;;;7.05;100.00;99289.78;4423657;32;20144;-75
2023/01/06 04:39:55;;;;;;;6.57;1.70;;;;;;;7.08;100.00;99271.34;4423602;32;20403;-75
2023/01/06 04:42:23;;;;;;;7.72;1.95;;;;;;;7.06;100.00;99266.25;4423591;32;20146;-74
2023/01/06 04:44:50;;;;;;;3.55;1.50;;;;;;;7.02;100.00;99266.56;4423558;32;20132;-74
2023/01/06 04:47:17;;;;;;;7.40;1.87;;;;;;;7.00;100.00;99279.69;4423665;32;20177;-74
2023/01/06 04:49:44;;;;;;;5.28;1.73;;;;;;;6.96;100.00;99272.16;4423393;32;20120;-74
2023/01/06 04:52:11;;;;;;;6.68;1.87;;;;;;;7.01;100.00;99270.94;4423633;32;20111;-75
2023/01/06 04:54:39;;;;;;;5.07;1.62;;;;;;;7.03;100.00;99270.84;4423389;32;20101;-74
2023/01/06 04:57:06;;;;;;;8.35;2.20;;;;;;;7.04;100.00;99270.72;4423420;32;20504;-74
2023/01/06 04:59:33;;;;;;;5.53;1.77;;;;;;;7.02;100.00;99275.19;4423421;32;20103;-74
2023/01/06 05:02:00;;;;;;;6.72;2.08;;;;;;;7.03;100.00;99286.47;4423387;32;20102;-74
2023/01/06 05:04:28;;;;;;;7.90;1.92;;;;;;;7.02;100.00;99290.00;4423494;32;20515;-76
2023/01/06 05:07:02;;;;;;;7.97;1.50;;;;;;;7.05;100.00;99297.59;4423449;32;20176;-75
2023/01/06 05:09:30;;;;;;;6.35;2.05;;;;;;;7.10;100.00;99306.81;4429098;32;20219;-75
2023/01/06 05:11:57;;;;;;;4.78;1.75;;;;;;;7.12;100.00;99311.91;4438936;32;20089;-75
2023/01/06 05:14:24;;;;;;;4.87;1.73;;;;;;;7.06;100.00;99320.13;4438608;32;20120;-74
2023/01/06 05:16:51;;;;;;;4.25;1.45;;;;;;;7.14;100.00;99319.62;4438763;32;20151;-75
2023/01/06 05:19:18;;;;;;;4.25;1.95;;;;;;;7.14;100.00;99327.44;4438579;32;20098;-75
2023/01/06 05:21:46;;;;;;;3.90;1.48;;;;;;;7.12;100.00;99330.16;4431667;32;20098;-75
2023/01/06 05:24:13;;;;;;;4.32;1.92;;;;;;;7.14;100.00;99336.06;4423200;32;20102;-75
2023/01/06 05:26:40;;;;;;;3.95;1.55;;;;;;;7.14;100.00;99335.25;4423175;32;20126;-75
2023/01/06 05:29:10;;;;;;;3.42;1.80;;;;;;;7.05;100.00;99334.91;4423128;32;20086;-74
2023/01/06 05:31:38;;;;;;;6.95;2.10;;;;;;;7.09;100.00;99339.00;4409557;32;20138;-75
2023/01/06 05:34:05;;;;;;;5.53;1.73;;;;;;;7.04;100.00;99345.44;4423270;32;20490;-75
2023/01/06 05:36:32;;;;;;;7.00;1.52;;;;;;;7.05;100.00;99347.09;4423196;32;20111;-74
2023/01/06 05:38:59;;;;;;;5.05;2.08;;;;;;;6.98;100.00;99341.47;4423230;32;20200;-74
2023/01/06 05:41:28;;;;;;;3.53;1.50;;;;;;;6.95;100.00;99335.63;4423146;32;20518;-74
2023/01/06 05:43:56;;;;;;;7.60;2.05;;;;;;;6.93;100.00;99338.31;4422875;32;20136;-75
2023/01/06 05:46:23;;;;;;;7.70;2.30;;;;;;;6.88;100.00;99336.00;4422772;32;20154;-75
2023/01/06 05:48:50;;;;;;;3.83;1.70;;;;;;;6.85;100.00;99346.63;4422990;32;20116;-74
2023/01/06 05:51:17;;;;;;;6.07;2.10;;;;;;;6.85;100.00;99351.84;4422959;32;20436;-74
2023/01/06 05:53:46;;;;;;;14.50;3.40;;;;;;;6.79;100.00;99352.22;4423125;32;20150;-74
2023/01/06 05:56:16;;;;;;;8.73;3.33;;;;;;;6.77;100.00;99351.50;4423093;32;20120;-75
2023/01/06 05:58:45;;;;;;;4.85;1.83;;;;;;;6.71;100.00;99351.91;4423012;32;20159;-74
2023/01/06 06:01:18;;;;;;;5.12;2.10;;;;;;;6.69;100.00;99356.34;4422909;32;20158;-75
2023/01/06 06:03:46;;;;;;;4.67;2.07;;;;;;;6.68;100.00;99359.91;4423231;32;20113;-74
2023/01/06 06:06:14;;;;;;;12.20;2.20;;;;;;;6.74;100.00;99368.16;4423089;32;20094;-75
2023/01/06 06:08:41;;;;;;;7.37;2.67;;;;;;;6.65;100.00;99362.72;4423501;32;20098;-75
2023/01/06 06:11:11;;;;;;;12.52;2.47;;;;;;;6.64;100.00;99363.63;4438428;32;20550;-74
2023/01/06 06:13:44;;;;;;;9.52;2.55;;;;;;;6.59;100.00;99363.09;4437958;32;20089;-75
2023/01/06 06:16:13;;;;;;;6.35;2.30;;;;;;;6.49;100.00;99361.06;4438211;32;20081;-75
2023/01/06 06:18:43;;;;;;;6.20;2.47;;;;;;;6.45;100.00;99371.75;4438178;32;20101;-75
2023/01/06 06:21:14;;;;;;;11.93;2.55;;;;;;;6.38;100.00;99366.13;4435065;32;20178;-75
2023/01/06 06:23:42;;;;;;;7.43;2.50;;;;;;;6.33;100.00;99368.19;4422602;32;20124;-75
2023/01/06 06:26:10;;;;;;;9.48;2.60;;;;;;;6.25;100.00;99367.78;4422747;32;20164;-74
2023/01/06 06:28:38;;;;;;;10.25;2.70;;;;;;;6.24;100.00;99366.97;4422719;32;20160;-75
2023/01/06 06:31:19;;;;;;;7.15;2.35;;;;;;;6.17;100.00;99366.50;4422832;32;20139;-76
2023/01/06 06:33:49;;;;;;;11.27;2.47;;;;;;;6.17;100.00;99368.28;4422805;32;20104;-74
2023/01/06 06:36:17;;;;;;;4.37;2.33;;;;;;;6.14;100.00;99361.47;4422720;32;20143;-74
2023/01/06 06:38:46;;;;;;;11.48;3.45;;;;;;;6.04;100.00;99375.97;4422579;32;20109;-74
2023/01/06 06:41:13;;;;;;;5.95;2.05;;;;;;;6.01;100.00;99387.41;4422581;32;20118;-74
2023/01/06 06:43:44;;;;;;;8.63;2.70;;;;;;;6.01;100.00;99387.41;4422641;32;20090;-74
2023/01/06 06:46:11;;;;;;;8.60;2.00;;;;;;;5.96;100.00;99391.19;4422834;32;20164;-74
2023/01/06 06:48:38;;;;;;;12.80;3.58;;;;;;;5.98;100.00;99384.16;4422485;32;20156;-74
2023/01/06 06:51:11;;;;;;;11.38;2.40;;;;;;;5.99;100.00;99381.47;4422597;32;20102;-74
2023/01/06 06:53:39;;;;;;;6.87;1.90;;;;;;;5.95;100.00;99387.75;4422365;32;20455;-74
2023/01/06 06:56:07;;;;;;;4.72;2.37;;;;;;;5.96;100.00;99386.00;4422122;32;20443;-74
2023/01/06 06:58:36;;;;;;;7.97;2.42;;;;;;;5.94;100.00;99387.84;4423676;32;20089;-74
2023/01/06 07:01:08;;;;;;;8.32;2.75;;;;;;;5.95;100.00;99387.75;4424412;32;20167;-74
2023/01/06 07:03:35;;;;;;;5.20;2.30;;;;;;;5.94;100.00;99388.69;4424173;32;20112;-74
2023/01/06 07:06:03;;;;;;;7.25;2.53;;;;;;;5.94;100.00;99393.06;4424311;32;20097;-74
2023/01/06 07:08:32;;;;;;;9.60;3.20;;;;;;;5.98;100.00;99402.34;4424286;32;20097;-74
2023/01/06 07:11:00;;;;;;;3.58;1.90;;;;;;;6.01;100.00;99408.22;4439348;32;20149;-73
2023/01/06 07:13:27;;;;;;;8.05;2.50;;;;;;;6.07;100.00;99411.38;4439342;32;20094;-73
2023/01/06 07:15:54;;;;;;;6.65;2.15;;;;;;;6.08;100.00;99413.87;4439484;32;20516;-73
2023/01/06 07:18:22;;;;;;;6.05;2.75;;;;;;;6.12;100.00;99422.34;4439321;32;20184;-73
2023/01/06 07:20:52;;;;;;;4.90;2.20;;;;;;;6.27;100.00;99425.78;4438421;32;20144;-73
2023/01/06 07:23:20;;;;;;;6.15;2.08;;;;;;;6.23;100.00;99438.13;4424019;32;20094;-73
2023/01/06 07:25:54;;;;;;;5.22;1.77;;;;;;;6.33;100.00;99444.47;4424002;32;20090;-74
2023/01/06 07:28:22;;;;;;;9.45;2.03;;;;;;;6.43;100.00;99433.50;4423782;32;20151;-73
2023/01/06 07:30:50;;;;;;;6.45;1.80;;;;;;;6.56;100.00;99431.81;4424111;32;20134;-73
2023/01/06 07:33:18;;;;;;;6.87;1.75;;;;;;;6.65;100.00;99433.84;4424006;32;20078;-73
2023/01/06 07:35:45;;;;;;;4.97;2.05;;;;;;;6.80;100.00;99432.03;4424027;32;20106;-73
2023/01/06 07:38:12;;;;;;;6.28;1.83;;;;;;;6.83;100.00;99431.00;4423887;32;20144;-73
2023/01/06 07:40:39;;;;;;;4.72;2.15;;;;;;;6.95;100.00;99421.56;4424041;32;20086;-73
2023/01/06 07:43:08;;;;;;;7.25;2.40;;;;;;;7.08;100.00;99425.06;4423911;32;20120;-73
2023/01/06 07:45:36;;;;;;;5.37;2.03;;;;;;;7.14;100.00;99424.66;4423859;32;20081;-74
2023/01/06 07:48:04;;;;;;;4.53;1.77;;;;;;;7.24;100.00;99424.94;4423848;32;20585;-73
2023/01/06 07:50:31;;;;;;;6.45;2.75;;;;;;;7.20;100.00;99432.09;4423861;32;20215;-74
2023/01/06 07:53:00;;;;;;;7.50;2.00;;;;;;;7.20;100.00;99434.69;4423623;32;20102;-73
2023/01/06 07:55:27;;;;;;;3.62;1.92;;;;;;;7.11;100.00;99437.91;4423935;32;20106;-73
2023/01/06 07:57:55;;;;;;;4.47;2.35;;;;;;;7.16;100.00;99425.44;4423677;32;20565;-73
2023/01/06 08:00:22;;;;;;;3.95;2.22;;;;;;;7.19;100.00;99429.59;4423979;32;20151;-72
2023/01/06 08:02:49;;;;;;;5.70;2.12;;;;;;;7.22;100.00;99442.41;4423807;32;20399;-73
2023/01/06 08:05:17;;;;;;;8.15;2.83;;;;;;;7.30;100.00;99434.94;4423858;32;20093;-72
2023/01/06 08:07:44;;;;;;;5.97;2.08;;;;;;;7.32;100.00;99437.47;4423565;32;20471;-72
2023/01/06 08:10:11;;;;;;;6.85;2.37;;;;;;;7.34;100.00;99430.34;4433805;32;20081;-72
2023/01/06 08:12:38;;;;;;;4.82;2.12;;;;;;;7.41;100.00;99426.44;4438993;32;20085;-73
2023/01/06 08:15:06;;;;;;;6.75;1.92;;;;;;;7.57;100.00;99421.87;4439158;32;20081;-72
2023/01/06 08:17:33;;;;;;;4.43;1.73;;;;;;;7.59;100.00;99413.94;4438943;32;20122;-72
2023/01/06 08:20:01;;;;;;;5.93;1.83;;;;;;;7.62;100.00;99405.91;4439037;32;20089;-74
2023/01/06 08:22:28;;;;;;;3.97;1.60;;;;;;;7.61;100.00;99397.25;4427640;32;20132;-74
2023/01/06 08:24:55;;;;;;;7.00;2.05;;;;;;;7.58;100.00;99407.88;4423599;32;20093;-73
2023/01/06 08:27:23;;;;;;;2.10;1.15;;;;;;;7.63;100.00;99405.81;4423352;32;20148;-74
2023/01/06 08:29:53;;;;;;;2.70;1.58;;;;;;;7.60;100.00;99400.81;4423646;32;20153;-74
2023/01/06 08:32:21;;;;;;;3.78;1.95;;;;;;;7.76;100.00;99405.00;4423604;32;20498;-73
2023/01/06 08:34:48;;;;;;;6.65;2.03;;;;;;;7.78;100.00;99413.53;4423579;32;20086;-73
2023/01/06 08:37:15;;;;;;;5.70;2.05;;;;;;;7.95;100.00;99420.25;4423769;32;20123;-73
2023/01/06 08:39:43;;;;;;;2.25;1.37;;;;;;;8.06;100.00;99416.91;4423559;32;20116;-73
2023/01/06 08:42:10;;;;;;;1.83;1.17;;;;;;;8.11;100.00;99415.63;4423397;32;20097;-73
2023/01/06 08:44:37;;;;;;;4.03;1.58;;;;;;;8.17;100.00;99409.16;4423634;32;20105;-74
2023/01/06 08:47:04;;;;;;;3.40;1.20;;;;;;;8.05;100.00;99417.81;4423639;32;20514;-74
2023/01/06 08:49:31;;;;;;;5.45;1.00;;;;;;;8.07;100.00;99415.94;4423284;32;20141;-74
2023/01/06 08:51:59;;;;;;;3.55;1.50;;;;;;;8.21;100.00;99417.62;4423552;32;20093;-74
2023/01/06 08:54:27;;;;;;;1.70;0.90;;;;;;;8.07;100.00;99419.41;4423198;32;20649;-73
2023/01/06 08:56:55;;;;;;;5.47;1.52;;;;;;;7.89;100.00;99437.13;4423395;32;20128;-73
2023/01/06 08:59:22;;;;;;;1.90;1.10;;;;;;;7.92;100.00;99438.72;4423189;32;20152;-74
2023/01/06 09:01:52;;;;;;;1.87;1.00;;;;;;;7.99;100.00;99453.84;4423384;32;20129;-74
2023/01/06 09:04:19;;;;;;;6.18;1.55;;;;;;;7.94;100.00;99453.31;4423310;32;20124;-73
2023/01/06 09:06:46;;;;;;;5.28;1.37;;;;;;;7.84;100.00;99460.06;4423248;32;20459;-74
2023/01/06 09:09:14;;;;;;;1.73;0.95;;;;;;;7.94;100.00;99463.75;4427222;32;20520;-73
2023/01/06 09:11:42;;;;;;;2.17;1.73;;;;;;;7.85;100.00;99464.34;4438727;32;20086;-73
2023/01/06 09:14:10;;;;;;;3.05;1.00;;;;;;;8.22;100.00;99469.72;4438720;32;20093;-73
2023/01/06 09:16:38;;;;;;;2.58;1.37;;;;;;;8.03;100.00;99469.28;4438746;32;20149;-74
2023/01/06 09:19:05;;;;;;;2.95;1.12;;;;;;;8.23;100.00;99465.31;4437631;32;20097;-73
2023/01/06 09:21:32;;;;;;;3.95;1.42;;;;;;;8.25;100.00;99473.88;4432814;32;20106;-74
2023/01/06 09:24:00;;;;;;;5.85;1.30;;;;;;;8.02;100.00;99467.63;4423237;32;20167;-74
2023/01/06 09:26:27;;;;;;;3.33;1.70;;;;;;;8.02;100.00;99476.25;4423019;32;20552;-73
2023/01/06 09:28:54;;;;;;;3.30;1.37;;;;;;;8.04;100.00;99478.78;4423019;32;20600;-73
2023/01/06 09:31:22;;;;;;;2.70;1.30;;;;;;;8.15;100.00;99484.13;4423166;32;20106;-73
2023/01/06 09:33:52;;;;;;;2.80;1.90;;;;;;;8.00;100.00;99492.03;4423298;32;20082;-74
2023/01/06 09:36:20;;;;;;;6.15;1.60;;;;;;;8.02;100.00;99476.25;4423216;32;20089;-73
2023/01/06 09:38:47;;;;;;;3.60;1.52;;;;;;;8.14;100.00;99478.03;4423139;32;20104;-73
2023/01/06 09:41:39;;;;;;;4.97;1.60;;;;;;;8.09;100.00;99474.91;4423144;32;20157;-72
2023/01/06 09:44:31;;;;;;;3.78;1.60;;;;;;;7.99;100.00;99469.50;4423016;32;20157;-73
2023/01/06 09:47:00;;;;;;;3.72;1.62;;;;;;;8.08;100.00;99461.97;4423137;32;20128;-73
2023/01/06 09:49:43;;;;;;;1.92;1.25;;;;;;;8.10;100.00;99460.09;4409081;32;20157;-72
2023/01/06 09:52:31;;;;;;;2.28;1.35;;;;;;;8.10;100.00;99460.09;4423183;32;20439;-73
2023/01/06 09:55:01;;;;;;;3.72;1.45;;;;;;;7.97;100.00;99463.53;4423239;32;20112;-72
2023/01/06 09:57:35;;;;;;;2.00;1.25;;;;;;;8.08;100.00;99456.75;4409108;32;20529;-73
2023/01/06 10:00:36;;;;;;;5.45;1.40;;;;;;;8.19;100.00;99456.88;4409315;32;20115;-73
2023/01/06 10:03:04;;;;;;;4.90;1.42;;;;;;;8.14;100.00;99458.94;4409412;32;20446;-72
2023/01/06 10:06:03;;;;;;;2.42;1.20;;;;;;;7.96;100.00;99461.88;4409147;32;20167;-72
2023/01/06 10:08:54;;;;;;;4.50;1.20;;;;;;;8.14;100.00;99462.38;4423038;32;20105;-74
2023/01/06 10:11:24;;;;;;;3.45;1.45;;;;;;;7.99;100.00;99453.84;4423072;32;20077;-75
2023/01/06 10:14:20;;;;;;;7.35;1.75;;;;;;;7.94;100.00;99455.91;4422813;32;20093;-75
2023/01/06 10:17:12;;;;;;;4.72;1.10;;;;;;;7.94;100.00;99453.31;4422889;32;20147;-74
2023/01/06 10:19:42;;;;;;;1.70;1.02;;;;;;;7.97;100.00;99455.72;4422852;32;20107;-73
2023/01/06 10:22:40;;;;;;;3.83;1.58;;;;;;;7.98;100.00;99461.78;4432141;32;20546;-73
2023/01/06 10:25:16;;;;;;;3.70;1.40;;;;;;;8.11;100.00;99448.72;4438001;32;20146;-73
2023/01/06 10:27:49;;;;;;;3.42;1.10;;;;;;;8.17;100.00;99456.97;4437950;32;20160;-72
2023/01/06 10:30:25;;;;;;;2.50;1.20;;;;;;;8.14;100.00;99445.91;4437896;32;20451;-72
2023/01/06 10:32:57;;;;;;;7.28;1.48;;;;;;;8.04;100.00;99447.47;4424753;32;20431;-72
2023/01/06 10:35:25;;;;;;;4.78;1.62;;;;;;;8.12;100.00;99447.78;4423939;32;20133;-72
2023/01/06 10:37:53;;;;;;;3.12;1.40;;;;;;;8.29;100.00;99444.84;4438158;32;20172;-73
2023/01/06 10:40:25;;;;;;;2.15;1.20;;;;;;;8.42;100.00;99450.06;4437876;32;20157;-72
2023/01/06 10:43:06;;;;;;;3.90;1.10;;;;;;;8.30;100.00;99446.53;4438108;32;20166;-73
2023/01/06 10:45:47;;;;;;;6.87;1.48;;;;;;;8.50;100.00;99447.78;4424126;32;20176;-72
2023/01/06 10:48:26;;;;;;;1.90;1.30;;;;;;;8.59;100.00;99451.53;4438149;32;20124;-72
2023/01/06 10:50:53;;;;;;;3.42;1.90;;;;;;;8.64;100.00;99448.59;4438051;32;20637;-72
2023/01/06 10:53:24;;;;;;;3.33;1.50;;;;;;;8.68;100.00;99439.59;4437949;32;20473;-72
2023/01/06 10:55:59;;;;;;;5.03;1.60;;;;;;;8.74;100.00;99443.56;4437743;32;20504;-73
2023/01/06 10:58:41;;;;;;;3.60;1.92;;;;;;;8.65;100.00;99451.09;4423937;32;20156;-72
2023/01/06 11:01:21;;;;;;;1.48;1.20;;;;;;;8.58;100.00;99442.00;4423854;32;20089;-73
2023/01/06 11:04:18;;;;;;;4.90;1.50;;;;;;;8.61;100.00;99439.19;4437891;32;20449;-72
2023/01/06 11:07:00;;;;;;;3.20;1.52;;;;;;;8.59;100.00;99435.84;4374559;32;20181;-74
2023/01/06 11:09:39;;;;;;;3.33;1.45;;;;;;;8.72;100.00;99442.81;4369072;32;20452;-73
2023/01/06 11:12:15;;;;;;;3.10;1.55;;;;;;;8.82;100.00;99433.38;4347110;32;20134;-75
2023/01/06 11:14:52;;;;;;;3.80;1.40;;;;;;;8.86;100.00;99432.25;4359467;32;20476;-74
2023/01/06 11:17:20;;;;;;;3.53;1.17;;;;;;;8.86;100.00;99427.84;4359613;32;20111;-74
2023/01/06 11:20:04;;;;;;;2.17;1.30;;;;;;;8.78;100.00;99434.53;4359232;32;20107;-73
2023/01/06 11:22:35;;;;;;;2.30;1.27;;;;;;;8.82;100.00;99431.59;4370638;32;20120;-73
2023/01/06 11:25:20;;;;;;;2.35;1.23;;;;;;;8.96;100.00;99428.03;4374026;32;20085;-73
2023/01/06 11:28:12;;;;;;;5.43;1.87;;;;;;;8.96;100.00;99429.78;4373872;32;20176;-73
2023/01/06 11:30:51;;;;;;;4.80;2.17;;;;;;;9.13;100.00;99418.09;4374108;32;20123;-74
2023/01/06 11:33:23;;;;;;;3.37;1.60;;;;;;;9.19;100.00;99417.66;4374138;32;20679;-74
2023/01/06 11:35:51;;;;;;;4.93;2.08;;;;;;;9.34;100.00;99424.41;4374116;32;20566;-74
2023/01/06 11:38:20;;;;;;;5.05;1.90;;;;;;;9.16;100.00;99421.34;4361541;32;20119;-74
2023/01/06 11:40:49;;;;;;;4.53;1.90;;;;;;;9.25;100.00;99412.00;4373964;32;20111;-73
2023/01/06 11:43:29;;;;;;;4.90;1.60;;;;;;;9.37;100.00;99405.87;4407081;32;20097;-73
2023/01/06 11:46:06;;;;;;;3.28;1.33;;;;;;;9.36;100.00;99409.41;4425500;32;20142;-73
2023/01/06 11:48:35;;;;;;;3.78;1.70;;;;;;;9.38;100.00;99401.47;4439170;32;20176;-73
2023/01/06 11:51:04;;;;;;;4.62;1.30;;;;;;;9.42;100.00;99405.53;4425507;32;20171;-73
2023/01/06 11:53:33;;;;;;;6.15;1.58;;;;;;;9.47;100.00;99410.41;4425246;32;20155;-73
2023/01/06 11:56:03;;;;;;;3.25;1.73;;;;;;;9.50;100.00;99405.78;4425393;32;20089;-73
2023/01/06 11:58:39;;;;;;;2.78;1.40;;;;;;;9.42;100.00;99415.97;4438959;32;20173;-73
2023/01/06 12:01:11;;;;;;;10.50;1.95;;;;;;;9.55;100.00;99403.66;4425430;32;20167;-73